Time,TemperatureF,DewpointF,PressureIn,WindDirection,WindDirectionDegrees,WindSpeedMPH,WindSpeedGustMPH,Humidity,HourlyPrecipIn,Conditions,Clouds,dailyrainin,SolarRadiationWatts/m^2,SoftwareType,DateUTC
2013-01-08 00:00:00,29.0,20.0,-100.00,NNE,22,8.0,-999.0,67,-99.99,,,-99.99,0.000000,,2013-01-08 05:00:00,
2013-01-08 00:33:00,29.0,20.0,-100.00,NNE,22,8.0,-999.0,67,-99.99,,,-99.99,0.000000,,2013-01-08 05:33:00,
2013-01-08 00:43:00,29.0,20.0,-100.00,NNE,22,8.0,-999.0,67,-99.99,,,-99.99,0.000000,,2013-01-08 05:43:00,
2013-01-08 00:53:00,29.0,20.0,-100.00,NNE,22,8.0,-999.0,67,-99.99,,,-99.99,0.000000,,2013-01-08 05:53:00,
2013-01-08 01:00:00,28.0,20.0,-100.00,NNE,22,6.0,-999.0,69,-99.99,,,-99.99,0.000000,,2013-01-08 06:00:00,
2013-01-08 01:33:00,28.0,20.0,-100.00,NNE,22,6.0,-999.0,69,-99.99,,,-99.99,0.000000,,2013-01-08 06:33:00,
2013-01-08 01:43:00,28.0,20.0,-100.00,NNE,22,6.0,-999.0,69,-99.99,,,-99.99,0.000000,,2013-01-08 06:43:00,
2013-01-08 01:53:00,28.0,20.0,-100.00,NNE,22,6.0,-999.0,69,-99.99,,,-99.99,0.000000,,2013-01-08 06:53:00,
2013-01-08 02:00:00,27.0,19.0,-100.00,NNE,22,6.0,-999.0,71,-99.99,,,-99.99,0.000000,,2013-01-08 07:00:00,
2013-01-08 02:42:00,27.0,19.0,-100.00,NNE,22,6.0,-999.0,71,-99.99,,,-99.99,0.000000,,2013-01-08 07:42:00,
2013-01-08 02:52:00,27.0,19.0,-100.00,NNE,22,6.0,-999.0,71,-99.99,,,-99.99,0.000000,,2013-01-08 07:52:00,
2013-01-08 04:00:00,27.0,20.0,-100.00,NNE,22,5.0,-999.0,75,-99.99,,,-99.99,0.000000,,2013-01-08 09:00:00,
2013-01-08 04:42:00,27.0,20.0,-100.00,NNE,22,5.0,-999.0,75,-99.99,,,-99.99,0.000000,,2013-01-08 09:42:00,
2013-01-08 04:52:00,27.0,20.0,-100.00,NNE,22,5.0,-999.0,75,-99.99,,,-99.99,0.000000,,2013-01-08 09:52:00,
2013-01-08 05:00:00,27.0,21.0,-100.00,NNE,22,6.0,-999.0,77,-99.99,,,-99.99,0.000000,,2013-01-08 10:00:00,
2013-01-08 05:42:00,27.0,21.0,-100.00,NNE,22,6.0,-999.0,77,-99.99,,,-99.99,0.000000,,2013-01-08 10:42:00,
2013-01-08 05:52:00,27.0,21.0,-100.00,NNE,22,6.0,-999.0,77,-99.99,,,-99.99,0.000000,,2013-01-08 10:52:00,
2013-01-08 06:00:00,26.0,20.0,-100.00,NNE,22,5.0,-999.0,78,-99.99,,,-99.99,0.000000,,2013-01-08 11:00:00,
2013-01-08 06:42:00,26.0,20.0,-100.00,NNE,22,5.0,-999.0,78,-99.99,,,-99.99,0.000000,,2013-01-08 11:42:00,
2013-01-08 06:53:00,26.0,20.0,-100.00,NNE,22,5.0,-999.0,78,-99.99,,,-99.99,0.000000,,2013-01-08 11:53:00,
2013-01-08 07:00:00,25.0,20.0,-100.00,NNE,22,5.0,-999.0,80,-99.99,,,-99.99,0.000000,,2013-01-08 12:00:00,
2013-01-08 07:33:00,25.0,20.0,-100.00,NNE,22,5.0,-999.0,80,-99.99,,,-99.99,0.000000,,2013-01-08 12:33:00,
2013-01-08 07:43:00,25.0,20.0,-100.00,NNE,22,5.0,-999.0,80,-99.99,,,-99.99,0.000000,,2013-01-08 12:43:00,
2013-01-08 07:53:00,25.0,20.0,-100.00,NNE,22,5.0,-999.0,80,-99.99,,,-99.99,0.000000,,2013-01-08 12:53:00,
2013-01-08 08:00:00,25.0,20.0,-100.00,NNE,22,6.0,-999.0,80,-99.99,,,-99.99,0.000000,,2013-01-08 13:00:00,
2013-01-08 08:43:00,25.0,20.0,-100.00,NNE,22,6.0,-999.0,80,-99.99,,,-99.99,0.000000,,2013-01-08 13:43:00,
2013-01-08 08:53:00,25.0,20.0,-100.00,NNE,22,6.0,-999.0,80,-99.99,,,-99.99,0.000000,,2013-01-08 13:53:00,
2013-01-08 09:00:00,25.0,20.0,-100.00,NNE,22,5.0,-999.0,81,-99.99,,,-99.99,17.400000,,2013-01-08 14:00:00,
2013-01-08 09:43:00,25.0,20.0,-100.00,NNE,22,5.0,-999.0,81,-99.99,,,-99.99,17.400000,,2013-01-08 14:43:00,
2013-01-08 09:53:00,25.0,20.0,-100.00,NNE,22,5.0,-999.0,81,-99.99,,,-99.99,17.400000,,2013-01-08 14:53:00,
2013-01-08 10:00:00,27.0,21.0,-100.00,NNE,22,6.0,-999.0,77,-99.99,,,-99.99,112.519997,,2013-01-08 15:00:00,
2013-01-08 10:43:00,27.0,21.0,-100.00,NNE,22,6.0,-999.0,77,-99.99,,,-99.99,112.519997,,2013-01-08 15:43:00,
2013-01-08 10:53:00,27.0,21.0,-100.00,NNE,22,6.0,-999.0,77,-99.99,,,-99.99,112.519997,,2013-01-08 15:53:00,
2013-01-08 11:00:00,30.0,22.0,-100.00,NNE,22,7.0,-999.0,72,-99.99,,,-99.99,175.160004,,2013-01-08 16:00:00,
2013-01-08 11:43:00,30.0,22.0,-100.00,NNE,22,7.0,-999.0,72,-99.99,,,-99.99,175.160004,,2013-01-08 16:43:00,
2013-01-08 11:53:00,30.0,22.0,-100.00,NNE,22,7.0,-999.0,72,-99.99,,,-99.99,175.160004,,2013-01-08 16:53:00,
2013-01-08 12:00:00,32.0,23.0,-100.00,North,0,8.0,-999.0,69,-99.99,,,-99.99,187.919998,,2013-01-08 17:00:00,
2013-01-08 12:43:00,32.0,23.0,-100.00,North,0,8.0,-999.0,69,-99.99,,,-99.99,187.919998,,2013-01-08 17:43:00,
2013-01-08 12:54:00,32.0,23.0,-100.00,North,0,8.0,-999.0,69,-99.99,,,-99.99,187.919998,,2013-01-08 17:54:00,
2013-01-08 13:00:00,35.0,24.0,-100.00,North,0,8.0,-999.0,63,-99.99,,,-99.99,381.640015,,2013-01-08 18:00:00,
2013-01-08 13:43:00,35.0,24.0,-100.00,North,0,8.0,-999.0,63,-99.99,,,-99.99,381.640015,,2013-01-08 18:43:00,
2013-01-08 13:53:00,35.0,24.0,-100.00,North,0,8.0,-999.0,63,-99.99,,,-99.99,381.640015,,2013-01-08 18:53:00,
2013-01-08 14:00:00,36.0,24.0,-100.00,North,0,9.0,-999.0,61,-99.99,,,-99.99,249.399994,,2013-01-08 19:00:00,
2013-01-08 14:43:00,36.0,24.0,-100.00,North,0,9.0,-999.0,61,-99.99,,,-99.99,249.399994,,2013-01-08 19:43:00,
2013-01-08 14:53:00,36.0,24.0,-100.00,North,0,9.0,-999.0,61,-99.99,,,-99.99,249.399994,,2013-01-08 19:53:00,
2013-01-08 15:00:00,36.0,24.0,-100.00,North,0,8.0,-999.0,60,-99.99,,,-99.99,216.919998,,2013-01-08 20:00:00,
2013-01-08 15:43:00,36.0,24.0,-100.00,North,0,8.0,-999.0,60,-99.99,,,-99.99,216.919998,,2013-01-08 20:43:00,
2013-01-08 15:54:00,36.0,24.0,-100.00,North,0,8.0,-999.0,60,-99.99,,,-99.99,216.919998,,2013-01-08 20:54:00,
2013-01-08 16:00:00,39.0,24.0,-100.00,North,0,8.0,-999.0,55,-99.99,,,-99.99,264.480011,,2013-01-08 21:00:00,
2013-01-08 16:43:00,39.0,24.0,-100.00,North,0,8.0,-999.0,55,-99.99,,,-99.99,264.480011,,2013-01-08 21:43:00,
2013-01-08 16:53:00,39.0,24.0,-100.00,North,0,8.0,-999.0,55,-99.99,,,-99.99,264.480011,,2013-01-08 21:53:00,
2013-01-08 17:00:00,38.0,24.0,-100.00,North,0,8.0,-999.0,58,-99.99,,,-99.99,80.040001,,2013-01-08 22:00:00,
2013-01-08 17:43:00,38.0,24.0,-100.00,North,0,8.0,-999.0,58,-99.99,,,-99.99,80.040001,,2013-01-08 22:43:00,
2013-01-08 17:53:00,38.0,24.0,-100.00,North,0,8.0,-999.0,58,-99.99,,,-99.99,80.040001,,2013-01-08 22:53:00,
2013-01-08 18:00:00,36.0,24.0,-100.00,North,0,8.0,-999.0,62,-99.99,,,-99.99,13.920000,,2013-01-08 23:00:00,
2013-01-08 18:43:00,36.0,24.0,-100.00,North,0,8.0,-999.0,62,-99.99,,,-99.99,13.920000,,2013-01-08 23:43:00,
2013-01-08 18:53:00,36.0,24.0,-100.00,North,0,8.0,-999.0,62,-99.99,,,-99.99,13.920000,,2013-01-08 23:53:00,
2013-01-08 19:00:00,33.0,24.0,-100.00,North,0,8.0,-999.0,67,-99.99,,,-99.99,0.000000,,2013-01-09 00:00:00,
2013-01-08 19:43:00,33.0,24.0,-100.00,North,0,8.0,-999.0,67,-99.99,,,-99.99,0.000000,,2013-01-09 00:43:00,
2013-01-08 19:53:00,33.0,24.0,-100.00,North,0,8.0,-999.0,67,-99.99,,,-99.99,0.000000,,2013-01-09 00:53:00,
2013-01-08 20:00:00,33.0,24.0,-100.00,NE,45,9.0,-999.0,69,-99.99,,,-99.99,0.000000,,2013-01-09 01:00:00,
2013-01-08 20:43:00,33.0,24.0,-100.00,NE,45,9.0,-999.0,69,-99.99,,,-99.99,0.000000,,2013-01-09 01:43:00,
2013-01-08 20:52:00,33.0,24.0,-100.00,NE,45,9.0,-999.0,69,-99.99,,,-99.99,0.000000,,2013-01-09 01:52:00,
2013-01-08 21:00:00,33.0,24.0,-100.00,North,0,9.0,-999.0,68,-99.99,,,-99.99,0.000000,,2013-01-09 02:00:00,
2013-01-08 21:43:00,33.0,24.0,-100.00,North,0,9.0,-999.0,68,-99.99,,,-99.99,0.000000,,2013-01-09 02:43:00,
2013-01-08 21:53:00,33.0,24.0,-100.00,North,0,9.0,-999.0,68,-99.99,,,-99.99,0.000000,,2013-01-09 02:53:00,
2013-01-08 22:00:00,33.0,24.0,-100.00,North,0,9.0,-999.0,68,-99.99,,,-99.99,0.000000,,2013-01-09 03:00:00,
2013-01-08 22:43:00,33.0,24.0,-100.00,North,0,9.0,-999.0,68,-99.99,,,-99.99,0.000000,,2013-01-09 03:43:00,
2013-01-08 22:53:00,33.0,24.0,-100.00,North,0,9.0,-999.0,68,-99.99,,,-99.99,0.000000,,2013-01-09 03:53:00,
2013-01-08 23:00:00,34.0,24.0,-100.00,North,0,11.0,-999.0,67,-99.99,,,-99.99,0.000000,,2013-01-09 04:00:00,
2013-01-08 23:43:00,34.0,24.0,-100.00,North,0,11.0,-999.0,67,-99.99,,,-99.99,0.000000,,2013-01-09 04:43:00,
2013-01-08 23:52:00,34.0,24.0,-100.00,North,0,11.0,-999.0,67,-99.99,,,-99.99,0.000000,,2013-01-09 04:52:00,